createdAt,value
2023-05-19T00:00:55.654Z,97311.50
2023-05-19T00:03:22.826Z,97331.13
2023-05-19T00:05:50.542Z,97332.47
2023-05-19T00:08:18.438Z,97340.63
2023-05-19T00:10:45.409Z,97329.66
2023-05-19T00:13:12.664Z,97330.75
2023-05-19T00:15:40.202Z,97311.41
2023-05-19T00:18:09.041Z,97331.28
2023-05-19T00:20:35.854Z,97323.50
2023-05-19T00:23:02.367Z,97314.44
2023-05-19T00:25:28.838Z,97327.59
2023-05-19T00:27:55.360Z,97310.34
2023-05-19T00:30:22.982Z,97321.88
2023-05-19T00:32:49.625Z,97290.00
2023-05-19T00:35:16.524Z,97321.53
2023-05-19T00:37:43.163Z,97291.38
2023-05-19T00:40:10.261Z,97311.22
2023-05-19T00:42:36.955Z,97293.81
2023-05-19T00:45:03.654Z,97312.06
2023-05-19T00:47:30.281Z,97290.56
2023-05-19T00:49:56.879Z,97299.81
2023-05-19T00:52:23.645Z,97303.16
2023-05-19T00:54:52.853Z,97287.78
2023-05-19T00:57:20.870Z,97313.06
2023-05-19T00:59:48.536Z,97300.94
2023-05-19T01:02:15.165Z,97294.75
2023-05-19T01:04:43.826Z,97292.25
2023-05-19T01:07:12.473Z,97298.66
2023-05-19T01:09:40.749Z,97291.22
2023-05-19T01:12:08.676Z,97288.59
2023-05-19T01:14:35.366Z,97288.38
2023-05-19T01:17:14.313Z,97294.66
2023-05-19T01:19:56.818Z,97291.47
2023-05-19T01:22:48.691Z,97283.34
2023-05-19T01:25:42.667Z,97291.22
2023-05-19T01:28:48.346Z,97288.72
2023-05-19T01:31:16.910Z,97260.16
2023-05-19T01:33:44.258Z,97261.19
2023-05-19T01:36:12.285Z,97258.00
2023-05-19T01:38:39.995Z,97281.06
2023-05-19T01:41:06.979Z,97289.75
2023-05-19T01:43:35.959Z,97275.50
2023-05-19T01:46:03.198Z,97282.47
2023-05-19T01:48:30.533Z,97277.56
2023-05-19T01:50:58.002Z,97278.47
2023-05-19T01:53:25.373Z,97277.75
2023-05-19T01:55:55.171Z,97287.72
2023-05-19T01:58:52.461Z,97296.63
2023-05-19T02:01:30.437Z,97283.13
2023-05-19T02:04:26.406Z,97295.75
2023-05-19T02:07:12.286Z,97289.56
2023-05-19T02:09:56.869Z,97293.84
2023-05-19T02:12:25.940Z,97296.44
2023-05-19T02:15:06.072Z,97287.19
2023-05-19T02:17:38.368Z,97276.28
2023-05-19T02:20:05.991Z,97262.63
2023-05-19T02:22:32.852Z,97261.69
2023-05-19T02:24:59.456Z,97276.03
2023-05-19T02:27:26.362Z,97282.19
2023-05-19T02:29:53.279Z,97282.38
2023-05-19T02:32:20.767Z,97276.25
2023-05-19T02:34:47.744Z,97269.34
2023-05-19T02:37:15.198Z,97282.88
2023-05-19T02:39:42.781Z,97263.03
2023-05-19T02:42:09.588Z,97272.28
2023-05-19T02:44:36.536Z,97245.84
2023-05-19T02:47:03.172Z,97263.47
2023-05-19T02:49:35.885Z,97267.41
2023-05-19T02:52:03.547Z,97248.25
2023-05-19T02:54:30.844Z,97270.38
2023-05-19T02:56:58.104Z,97272.00
2023-05-19T02:59:25.727Z,97263.03
2023-05-19T03:01:56.079Z,97265.00
2023-05-19T03:04:22.678Z,97246.56
2023-05-19T03:06:50.167Z,97243.53
2023-05-19T03:09:16.735Z,97227.22
2023-05-19T03:11:43.250Z,97267.25
2023-05-19T03:14:09.876Z,97239.34
2023-05-19T03:16:36.621Z,97256.56
2023-05-19T03:19:03.391Z,97238.00
2023-05-19T03:21:30.445Z,97251.25
2023-05-19T03:23:57.204Z,97253.31
2023-05-19T03:26:24.696Z,97251.72
2023-05-19T03:28:51.231Z,97271.78
2023-05-19T03:31:17.805Z,97262.38
2023-05-19T03:33:44.545Z,97255.97
2023-05-19T03:36:12.807Z,97272.88
2023-05-19T03:38:39.733Z,97256.44
2023-05-19T03:41:06.158Z,97280.31
2023-05-19T03:43:32.803Z,97245.47
2023-05-19T03:46:02.799Z,97260.59
2023-05-19T03:48:49.702Z,97248.75
2023-05-19T03:51:43.098Z,97256.09
2023-05-19T03:54:32.632Z,97254.41
2023-05-19T03:56:59.198Z,97262.34
2023-05-19T03:59:25.875Z,97277.78
2023-05-19T04:01:52.797Z,97272.38
2023-05-19T04:04:19.522Z,97242.91
2023-05-19T04:06:46.258Z,97246.50
2023-05-19T04:09:15.835Z,97272.88
2023-05-19T04:11:43.121Z,97252.59
2023-05-19T04:14:09.824Z,97271.09
2023-05-19T04:16:36.770Z,97272.69
2023-05-19T04:19:03.357Z,97241.91
2023-05-19T04:21:29.833Z,97278.06
2023-05-19T04:23:59.196Z,97270.88
2023-05-19T04:26:26.934Z,97273.09
2023-05-19T04:28:57.831Z,97262.50
2023-05-19T04:31:24.546Z,97263.25
2023-05-19T04:33:53.478Z,97260.44
2023-05-19T04:36:21.761Z,97275.44
2023-05-19T04:38:54.851Z,97257.19
2023-05-19T04:41:23.461Z,97258.28
2023-05-19T04:43:50.083Z,97258.06
2023-05-19T04:46:18.272Z,97252.47
2023-05-19T04:48:45.216Z,97248.03
2023-05-19T04:51:14.174Z,97253.75
2023-05-19T04:53:41.775Z,97244.84
2023-05-19T04:56:13.624Z,97259.34
2023-05-19T04:58:41.978Z,97266.59
2023-05-19T05:01:09.620Z,97268.41
2023-05-19T05:03:37.062Z,97262.59
2023-05-19T05:06:04.573Z,97259.72
2023-05-19T05:08:31.160Z,97256.06
2023-05-19T05:10:58.726Z,97216.63
2023-05-19T05:13:26.303Z,97260.53
2023-05-19T05:15:54.196Z,97266.78
2023-05-19T05:18:21.297Z,97247.94
2023-05-19T05:20:48.350Z,97263.00
2023-05-19T05:23:16.694Z,97249.50
2023-05-19T05:25:47.325Z,97254.09
2023-05-19T05:28:15.599Z,97244.84
2023-05-19T05:30:43.692Z,97230.88
2023-05-19T05:33:10.745Z,97247.44
2023-05-19T05:35:39.459Z,97254.97
2023-05-19T05:38:08.099Z,97240.59
2023-05-19T05:40:36.182Z,97235.97
2023-05-19T05:43:03.961Z,97243.50
2023-05-19T05:45:34.311Z,97255.47
2023-05-19T05:48:01.654Z,97256.66
2023-05-19T05:50:29.802Z,97240.25
2023-05-19T05:52:58.040Z,97242.25
2023-05-19T05:55:26.586Z,97257.31
2023-05-19T05:57:53.215Z,97237.31
2023-05-19T06:00:21.297Z,97242.94
2023-05-19T06:02:52.091Z,97241.94
2023-05-19T06:05:19.673Z,97238.06
2023-05-19T06:07:47.572Z,97256.88
2023-05-19T06:10:19.469Z,97240.50
2023-05-19T06:12:46.948Z,97258.81
2023-05-19T06:15:13.465Z,97267.19
2023-05-19T06:17:49.948Z,97264.63
2023-05-19T06:20:18.069Z,97264.88
2023-05-19T06:22:44.692Z,97244.63
2023-05-19T06:25:11.734Z,97201.63
2023-05-19T06:27:38.255Z,97248.91
2023-05-19T06:30:04.916Z,97255.16
2023-05-19T06:32:36.897Z,97243.84
2023-05-19T06:35:03.513Z,97261.72
2023-05-19T06:37:30.122Z,97248.03
2023-05-19T06:39:57.105Z,97256.06
2023-05-19T06:42:25.241Z,97263.06
2023-05-19T06:45:06.957Z,97241.59
2023-05-19T06:47:33.555Z,97262.31
2023-05-19T06:50:00.371Z,97264.00
2023-05-19T06:52:30.921Z,97239.22
2023-05-19T06:54:57.781Z,97256.81
2023-05-19T06:57:24.270Z,97268.88
2023-05-19T06:59:51.015Z,97271.41
2023-05-19T07:02:18.006Z,97262.63
2023-05-19T07:04:44.466Z,97266.63
2023-05-19T07:07:15.177Z,97264.72
2023-05-19T07:09:42.537Z,97250.56
2023-05-19T07:12:09.176Z,97250.63
2023-05-19T07:14:36.519Z,97262.69
2023-05-19T07:17:03.378Z,97244.22
2023-05-19T07:19:30.046Z,97258.41
2023-05-19T07:21:57.121Z,97249.22
2023-05-19T07:24:24.884Z,97246.25
2023-05-19T07:26:51.451Z,97239.00
2023-05-19T07:29:17.888Z,97251.91
2023-05-19T07:31:44.494Z,97239.84
2023-05-19T07:34:11.310Z,97218.81
2023-05-19T07:36:37.870Z,97246.88
2023-05-19T07:39:04.367Z,97247.44
2023-05-19T07:41:30.977Z,97224.88
2023-05-19T07:43:57.423Z,97232.66
2023-05-19T07:46:23.957Z,97224.94
2023-05-19T07:48:50.585Z,97219.81
2023-05-19T07:51:17.267Z,97230.31
2023-05-19T07:53:43.858Z,97210.06
2023-05-19T07:56:10.534Z,97228.50
2023-05-19T07:58:37.236Z,97236.88
2023-05-19T08:01:04.033Z,97232.97
2023-05-19T08:03:31.007Z,97207.31
2023-05-19T08:05:57.768Z,97235.28
2023-05-19T08:08:24.268Z,97244.69
2023-05-19T08:10:50.758Z,97213.53
2023-05-19T08:13:17.293Z,97241.75
2023-05-19T08:15:43.941Z,97243.63
2023-05-19T08:18:10.623Z,97201.25
2023-05-19T08:20:37.601Z,97189.31
2023-05-19T08:23:04.117Z,97245.53
2023-05-19T08:25:30.613Z,97235.97
2023-05-19T08:27:57.149Z,97223.28
2023-05-19T08:30:23.852Z,97235.38
2023-05-19T08:32:50.434Z,97232.47
2023-05-19T08:35:16.952Z,97231.78
2023-05-19T08:37:43.494Z,97231.16
2023-05-19T08:40:16.167Z,97234.13
2023-05-19T08:42:43.034Z,97210.91
2023-05-19T08:45:09.964Z,97229.22
2023-05-19T08:47:36.876Z,97235.78
2023-05-19T08:50:10.727Z,97226.31
2023-05-19T08:52:53.251Z,97228.75
2023-05-19T08:55:35.473Z,97220.56
2023-05-19T08:58:04.400Z,97231.66
2023-05-19T09:00:31.222Z,97201.56
2023-05-19T09:03:10.832Z,97225.56
2023-05-19T09:05:46.397Z,97198.97
2023-05-19T09:08:13.353Z,97197.47
2023-05-19T09:10:40.096Z,97208.31
2023-05-19T09:13:06.869Z,97196.63
2023-05-19T09:15:36.704Z,97211.31
2023-05-19T09:18:10.814Z,97209.94
2023-05-19T09:20:40.044Z,97196.00
2023-05-19T09:23:06.662Z,97199.31
2023-05-19T09:25:33.517Z,97195.41
2023-05-19T09:28:00.493Z,97190.00
2023-05-19T09:30:27.073Z,97186.66
2023-05-19T09:32:53.884Z,97200.91
2023-05-19T09:35:21.584Z,97200.88
2023-05-19T09:37:48.302Z,97192.28
2023-05-19T09:40:15.755Z,97197.53
2023-05-19T09:42:43.994Z,97174.19
2023-05-19T09:45:11.338Z,97189.16
2023-05-19T09:47:39.687Z,97126.00
2023-05-19T09:50:08.845Z,97179.13
2023-05-19T09:52:37.172Z,97185.66
2023-05-19T09:55:05.648Z,97192.88
2023-05-19T09:57:37.235Z,97160.50
2023-05-19T10:00:11.857Z,97113.88
2023-05-19T10:02:42.921Z,97183.88
2023-05-19T10:05:17.564Z,97172.06
2023-05-19T10:07:45.767Z,97173.84
2023-05-19T10:10:13.915Z,97170.97
2023-05-19T10:12:41.634Z,97173.09
2023-05-19T10:15:12.987Z,97169.88
2023-05-19T10:17:41.369Z,97170.47
2023-05-19T10:20:10.915Z,97168.03
2023-05-19T10:22:38.198Z,97138.44
2023-05-19T10:25:05.866Z,97169.53
2023-05-19T10:27:36.719Z,97159.72
2023-05-19T10:30:16.307Z,97158.16
2023-05-19T10:32:46.612Z,97168.91
2023-05-19T10:35:41.030Z,97159.47
2023-05-19T10:38:10.537Z,97158.13
2023-05-19T10:40:43.761Z,97161.31
2023-05-19T10:43:25.494Z,97148.34
2023-05-19T10:45:53.921Z,97132.16
2023-05-19T10:48:22.090Z,97135.28
2023-05-19T10:50:52.868Z,97151.38
2023-05-19T10:53:22.073Z,97157.13
2023-05-19T10:55:59.140Z,97166.75
2023-05-19T10:58:43.948Z,97162.09
2023-05-19T11:01:16.475Z,97132.88
2023-05-19T11:03:53.929Z,97139.22
2023-05-19T11:06:25.321Z,97142.47
2023-05-19T11:09:15.431Z,97165.03
2023-05-19T11:11:49.659Z,97163.72
2023-05-19T11:14:19.434Z,97159.75
2023-05-19T11:16:51.338Z,97129.00
2023-05-19T11:19:20.066Z,97134.22
2023-05-19T11:21:52.447Z,97151.72
2023-05-19T11:24:44.518Z,97139.38
2023-05-19T11:27:33.440Z,97146.47
2023-05-19T11:30:11.440Z,97141.09
2023-05-19T11:32:42.774Z,97138.19
2023-05-19T11:35:10.165Z,97136.88
2023-05-19T11:37:37.132Z,97134.59
2023-05-19T11:40:06.874Z,97136.44
2023-05-19T11:42:35.297Z,97139.88
2023-05-19T11:45:02.292Z,97125.63
2023-05-19T11:47:28.961Z,97123.28
2023-05-19T11:49:58.923Z,97131.78
2023-05-19T11:52:27.492Z,97129.22
2023-05-19T11:54:54.028Z,97119.88
2023-05-19T11:57:20.983Z,97120.16
2023-05-19T11:59:49.690Z,97099.50
2023-05-19T12:02:21.534Z,97129.16
2023-05-19T12:04:52.092Z,97125.00
2023-05-19T12:07:20.630Z,97124.56
2023-05-19T12:09:47.422Z,97117.94
2023-05-19T12:12:19.061Z,97104.09
2023-05-19T12:14:47.279Z,97114.97
2023-05-19T12:17:21.166Z,97104.63
2023-05-19T12:19:49.037Z,97080.88
2023-05-19T12:22:17.696Z,97087.56
2023-05-19T12:24:45.157Z,97093.50
2023-05-19T12:27:19.624Z,97102.81
2023-05-19T12:30:00.060Z,97108.69
2023-05-19T12:32:28.970Z,97110.47
2023-05-19T12:34:56.436Z,97102.00
2023-05-19T12:37:27.599Z,97065.09
2023-05-19T12:39:56.229Z,97101.81
2023-05-19T12:42:23.467Z,97089.72
2023-05-19T12:44:52.676Z,97098.75
2023-05-19T12:47:20.197Z,97092.91
2023-05-19T12:49:56.931Z,97088.00
2023-05-19T12:52:23.994Z,97077.44
2023-05-19T12:54:57.773Z,97061.44
2023-05-19T12:57:26.104Z,97072.53
2023-05-19T12:59:53.213Z,97084.59
2023-05-19T13:02:21.001Z,97090.03
2023-05-19T13:04:48.507Z,97066.41
2023-05-19T13:07:14.995Z,97079.19
2023-05-19T13:09:42.216Z,97079.91
2023-05-19T13:12:08.951Z,97062.56
2023-05-19T13:14:35.483Z,97033.38
2023-05-19T13:17:02.060Z,97076.47
2023-05-19T13:19:29.108Z,97059.66
2023-05-19T13:21:55.613Z,97059.78
2023-05-19T13:24:22.073Z,97065.16
2023-05-19T13:26:48.824Z,97057.97
2023-05-19T13:29:15.410Z,97063.63
2023-05-19T13:31:42.104Z,97058.97
2023-05-19T13:34:08.807Z,97067.44
2023-05-19T13:36:36.570Z,97057.25
2023-05-19T13:39:03.484Z,97060.97
2023-05-19T13:41:30.047Z,97023.78
2023-05-19T13:43:59.617Z,97061.91
2023-05-19T13:46:33.096Z,97055.78
2023-05-19T13:49:10.351Z,97045.75
2023-05-19T13:51:37.579Z,97054.47
2023-05-19T13:54:05.030Z,97048.41
2023-05-19T13:56:31.841Z,97038.38
2023-05-19T13:58:58.406Z,97029.78
2023-05-19T14:01:24.880Z,97035.41
2023-05-19T14:03:51.808Z,97042.28
2023-05-19T14:06:18.403Z,97046.31
2023-05-19T14:08:45.510Z,97035.69
2023-05-19T14:11:21.830Z,97026.38
2023-05-19T14:13:52.884Z,97040.56
2023-05-19T14:16:21.953Z,97036.22
2023-05-19T14:18:48.988Z,97026.53
2023-05-19T14:21:15.708Z,97015.25
2023-05-19T14:23:42.219Z,97015.16
2023-05-19T14:26:08.631Z,97029.59
2023-05-19T14:28:35.268Z,97018.09
2023-05-19T14:31:01.854Z,97012.03
2023-05-19T14:33:29.761Z,97006.06
2023-05-19T14:36:01.996Z,97024.56
2023-05-19T14:38:29.459Z,97034.13
2023-05-19T14:40:56.522Z,97016.22
2023-05-19T14:43:23.233Z,97015.97
2023-05-19T14:45:50.154Z,97022.69
2023-05-19T14:48:17.448Z,97001.47
2023-05-19T14:50:44.356Z,97022.69
2023-05-19T14:53:11.198Z,96992.84
2023-05-19T14:55:37.736Z,97005.75
2023-05-19T14:58:12.909Z,97016.41
2023-05-19T15:00:48.005Z,96987.81
2023-05-19T15:03:14.590Z,96997.63
2023-05-19T15:05:41.172Z,97007.41
2023-05-19T15:08:07.613Z,97015.31
2023-05-19T15:10:34.331Z,97011.44
2023-05-19T15:13:01.712Z,97024.97
2023-05-19T15:15:28.352Z,97001.59
2023-05-19T15:17:55.007Z,96991.53
2023-05-19T15:20:21.630Z,97002.16
2023-05-19T15:22:48.832Z,96991.28
2023-05-19T15:25:15.475Z,96974.31
2023-05-19T15:27:42.191Z,96969.41
2023-05-19T15:30:09.174Z,96990.81
2023-05-19T15:32:35.751Z,96964.75
2023-05-19T15:35:02.451Z,96995.97
2023-05-19T15:37:29.026Z,97000.09
2023-05-19T15:39:55.479Z,97000.59
2023-05-19T15:42:22.031Z,96977.91
2023-05-19T15:44:48.452Z,96997.13
2023-05-19T15:47:14.977Z,96979.00
2023-05-19T15:49:41.445Z,96999.09
2023-05-19T15:52:07.961Z,96997.44
2023-05-19T15:54:34.458Z,96986.50
2023-05-19T15:57:01.048Z,96976.09
2023-05-19T15:59:27.676Z,96991.38
2023-05-19T16:01:54.169Z,96980.81
2023-05-19T16:04:20.967Z,96975.06
2023-05-19T16:06:47.591Z,96961.16
2023-05-19T16:09:14.107Z,96999.34
2023-05-19T16:11:40.760Z,96967.34
2023-05-19T16:14:07.268Z,96987.00
2023-05-19T16:16:33.820Z,96987.59
2023-05-19T16:19:00.400Z,96974.13
2023-05-19T16:21:27.431Z,96970.66
2023-05-19T16:23:53.857Z,96979.81
2023-05-19T16:26:21.561Z,96966.34
2023-05-19T16:28:48.087Z,96944.88
2023-05-19T16:31:14.526Z,96975.19
2023-05-19T16:33:41.324Z,96960.91
2023-05-19T16:36:07.896Z,96960.41
2023-05-19T16:38:34.410Z,96954.47
2023-05-19T16:41:01.009Z,96969.06
2023-05-19T16:43:27.441Z,96960.66
2023-05-19T16:45:53.971Z,96962.34
2023-05-19T16:48:20.641Z,96963.88
2023-05-19T16:50:50.373Z,96945.88
2023-05-19T16:53:17.293Z,96951.22
2023-05-19T16:55:43.825Z,96932.22
2023-05-19T16:59:50.621Z,96947.03
2023-05-19T17:02:17.093Z,96950.47
2023-05-19T17:04:43.686Z,96948.56
2023-05-19T17:07:15.691Z,96955.84
2023-05-19T17:09:43.115Z,96958.84
2023-05-19T17:12:09.827Z,96959.94
2023-05-19T17:14:36.621Z,96963.84
2023-05-19T17:17:03.370Z,96945.03
2023-05-19T17:19:30.023Z,96960.78
2023-05-19T17:21:56.695Z,96958.56
2023-05-19T17:24:23.227Z,96955.69
2023-05-19T17:26:49.792Z,96959.25
2023-05-19T17:29:16.308Z,96965.16
2023-05-19T17:31:42.970Z,96964.06
2023-05-19T17:34:09.639Z,96964.88
2023-05-19T17:36:36.163Z,96958.78
2023-05-19T17:39:02.651Z,96963.56
2023-05-19T17:41:29.255Z,96948.44
2023-05-19T17:43:55.825Z,96969.00
2023-05-19T17:46:22.342Z,96965.97
2023-05-19T17:48:48.921Z,96961.72
2023-05-19T17:51:15.442Z,96964.91
2023-05-19T17:53:42.485Z,96959.84
2023-05-19T17:56:12.001Z,96959.19
2023-05-19T17:58:38.923Z,96950.09
2023-05-19T18:01:05.938Z,96964.53
2023-05-19T18:03:32.988Z,96952.03
2023-05-19T18:05:59.783Z,96944.63
2023-05-19T18:08:27.762Z,96957.34
2023-05-19T18:10:55.851Z,96955.53
2023-05-19T18:13:23.576Z,96966.41
2023-05-19T18:15:50.620Z,96955.50
2023-05-19T18:18:17.233Z,96959.84
2023-05-19T18:20:45.643Z,96954.47
2023-05-19T18:23:12.205Z,96954.47
2023-05-19T18:25:38.725Z,96962.47
2023-05-19T18:28:05.348Z,96965.69
2023-05-19T18:30:32.157Z,96951.09
2023-05-19T18:33:02.082Z,96959.63
2023-05-19T18:35:28.886Z,96945.28
2023-05-19T18:37:56.622Z,96943.97
2023-05-19T18:40:23.383Z,96963.59
2023-05-19T18:42:50.556Z,96965.44
2023-05-19T18:45:17.180Z,96962.81
2023-05-19T18:47:43.679Z,96967.63
2023-05-19T18:50:10.493Z,96971.84
2023-05-19T18:52:37.012Z,96970.53
2023-05-19T18:55:03.808Z,96970.56
2023-05-19T18:57:30.421Z,96968.38
2023-05-19T18:59:56.993Z,96977.16
2023-05-19T19:02:23.585Z,96978.44
2023-05-19T19:04:50.269Z,96968.41
2023-05-19T19:07:16.880Z,96970.81
2023-05-19T19:09:43.815Z,96975.00
2023-05-19T19:12:10.807Z,96975.81
2023-05-19T19:14:37.434Z,96970.25
2023-05-19T19:17:04.028Z,96973.94
2023-05-19T19:19:30.895Z,96973.44
2023-05-19T19:21:57.707Z,96980.28
2023-05-19T19:24:26.415Z,96979.50
2023-05-19T19:26:53.042Z,96990.59
2023-05-19T19:29:21.790Z,96985.31
2023-05-19T19:31:48.580Z,96983.69
2023-05-19T19:34:19.846Z,96984.97
2023-05-19T19:36:47.808Z,96985.00
2023-05-19T19:39:14.524Z,96990.03
2023-05-19T19:41:41.118Z,96990.03
2023-05-19T19:44:09.338Z,96997.13
2023-05-19T19:46:35.944Z,96996.56
2023-05-19T19:49:03.047Z,96992.06
2023-05-19T19:51:29.747Z,97002.66
2023-05-19T19:53:56.695Z,96997.88
2023-05-19T19:56:24.749Z,96989.50
2023-05-19T19:58:51.664Z,96990.53
2023-05-19T20:01:20.658Z,96991.47
2023-05-19T20:03:48.020Z,96984.53
2023-05-19T20:06:14.810Z,96999.72
2023-05-19T20:08:41.518Z,96989.81
2023-05-19T20:11:08.303Z,96999.38
2023-05-19T20:13:34.938Z,96998.75
2023-05-19T20:16:02.136Z,97000.59
2023-05-19T20:18:29.885Z,96985.88
2023-05-19T20:20:56.817Z,96996.94
2023-05-19T20:23:23.372Z,96998.44
2023-05-19T20:26:06.695Z,96993.44
2023-05-19T20:28:36.412Z,96988.66
2023-05-19T20:31:02.880Z,96996.94
2023-05-19T20:33:29.589Z,96996.09
2023-05-19T20:35:56.133Z,97009.78
2023-05-19T20:38:22.655Z,96997.34
2023-05-19T20:40:49.388Z,97009.16
2023-05-19T20:43:16.153Z,96993.81
2023-05-19T20:45:44.174Z,96995.13
2023-05-19T20:48:11.351Z,96985.31
2023-05-19T20:50:39.223Z,96986.00
2023-05-19T20:53:07.370Z,96992.00
2023-05-19T20:55:36.124Z,96983.69
2023-05-19T20:58:02.795Z,96987.78
2023-05-19T21:00:30.522Z,96993.75
2023-05-19T21:02:57.911Z,96992.41
2023-05-19T21:05:24.884Z,96986.38
2023-05-19T21:07:51.591Z,96994.50
2023-05-19T21:10:18.387Z,96989.19
2023-05-19T21:12:45.708Z,96977.78
2023-05-19T21:15:12.841Z,96997.53
2023-05-19T21:17:39.416Z,96994.44
2023-05-19T21:20:06.248Z,96994.22
2023-05-19T21:22:32.787Z,96992.50
2023-05-19T21:24:59.332Z,96986.34
2023-05-19T21:27:25.966Z,96990.25
2023-05-19T21:29:55.497Z,96987.09
2023-05-19T21:32:22.146Z,96971.78
2023-05-19T21:34:48.883Z,96980.72
2023-05-19T21:37:17.283Z,96978.00
2023-05-19T21:39:44.282Z,96961.84
2023-05-19T21:42:10.927Z,96983.16
2023-05-19T21:44:37.603Z,96989.75
2023-05-19T21:47:04.229Z,96981.69
2023-05-19T21:49:31.304Z,96986.75
2023-05-19T21:51:58.468Z,96980.31
2023-05-19T21:54:25.159Z,96976.00
2023-05-19T21:56:51.824Z,96972.34
2023-05-19T21:59:18.412Z,96979.09
2023-05-19T22:17:32.873Z,96972.94
2023-05-19T22:19:59.390Z,96974.97
2023-05-19T22:22:26.205Z,96964.78
2023-05-19T22:24:52.770Z,96968.13
2023-05-19T22:27:19.254Z,96969.78
2023-05-19T22:29:45.873Z,96970.94
2023-05-19T22:32:14.029Z,96967.53
2023-05-19T22:34:40.764Z,96967.66
2023-05-19T22:37:07.395Z,96964.31
2023-05-19T22:39:33.934Z,96967.53
2023-05-19T22:42:00.529Z,96958.09
2023-05-19T22:44:27.620Z,96952.91
2023-05-19T22:46:54.098Z,96964.78
2023-05-19T22:49:22.869Z,96957.94
2023-05-19T22:51:50.065Z,96952.94
2023-05-19T22:54:16.729Z,96951.63
2023-05-19T22:56:46.375Z,96948.53
2023-05-19T22:59:13.156Z,96953.81
2023-05-19T23:01:39.822Z,96952.59
2023-05-19T23:04:06.568Z,96950.13
2023-05-19T23:06:33.183Z,96951.16
2023-05-19T23:09:01.013Z,96948.72
2023-05-19T23:11:27.703Z,96950.66
2023-05-19T23:13:54.294Z,96941.66
2023-05-19T23:16:20.991Z,96948.56
2023-05-19T23:18:47.624Z,96952.84
2023-05-19T23:21:14.267Z,96943.84
2023-05-19T23:23:52.148Z,96946.25
2023-05-19T23:26:18.730Z,96934.94
2023-05-19T23:28:45.266Z,96937.53
2023-05-19T23:31:11.930Z,96924.09
2023-05-19T23:33:38.602Z,96924.31
2023-05-19T23:36:07.612Z,96916.84
2023-05-19T23:38:35.003Z,96926.25
2023-05-19T23:41:02.306Z,96916.09
2023-05-19T23:43:28.993Z,96917.88
2023-05-19T23:45:55.650Z,96916.19
2023-05-19T23:48:22.205Z,96927.72
2023-05-19T23:50:48.865Z,96934.69
2023-05-19T23:53:15.635Z,96925.16
2023-05-19T23:55:42.355Z,96913.47
2023-05-19T23:58:09.028Z,96928.47
